createdAt,value
2022-10-18T00:02:42.150Z,28
2022-10-18T00:04:45.644Z,27.8
2022-10-18T00:08:52.541Z,25.2
2022-10-18T00:10:55.986Z,28.2
2022-10-18T00:12:59.461Z,27.1
2022-10-18T00:15:06.010Z,28.1
2022-10-18T00:19:12.925Z,29.5
2022-10-18T00:21:16.395Z,31.7
2022-10-18T00:29:33.355Z,34.5
2022-10-18T00:33:41.793Z,32.7
2022-10-18T00:34:45.061Z,33.6
2022-10-18T00:36:48.481Z,31.5
2022-10-18T00:38:51.966Z,34.1
2022-10-18T00:40:55.427Z,29.3
2022-10-18T00:43:01.967Z,31.7
2022-10-18T00:45:05.424Z,29.9
2022-10-18T00:47:08.855Z,32
2022-10-18T00:49:12.333Z,30
2022-10-18T00:51:15.839Z,26.9
2022-10-18T00:53:19.296Z,30
2022-10-18T00:55:22.775Z,27.9
2022-10-18T00:59:32.742Z,33.4
2022-10-18T01:01:36.266Z,35
2022-10-18T01:03:39.720Z,36.1
2022-10-18T01:05:43.186Z,35.2
2022-10-18T01:07:46.686Z,35.1
2022-10-18T01:09:50.159Z,36.4
2022-10-18T01:18:07.143Z,40.9
2022-10-18T01:20:10.628Z,38.7
2022-10-18T01:22:14.068Z,37.5
2022-10-18T01:24:17.547Z,42.4
2022-10-18T01:26:24.131Z,40.4
2022-10-18T01:28:27.662Z,40.9
2022-10-18T01:30:31.062Z,41.3
2022-10-18T01:35:41.243Z,42.7
2022-10-18T01:37:44.746Z,39
2022-10-18T01:39:51.327Z,40.9
2022-10-18T01:41:54.772Z,39.2
2022-10-18T01:43:58.259Z,37.7
2022-10-18T01:46:01.741Z,38.8
2022-10-18T01:48:05.198Z,38.1
2022-10-18T01:50:08.648Z,34.8
2022-10-18T01:52:12.116Z,37.7
2022-10-18T01:54:18.661Z,37.1
2022-10-18T01:56:22.152Z,32.3
2022-10-18T01:58:25.615Z,37.3
2022-10-18T02:02:33.160Z,32
2022-10-18T02:04:36.014Z,34.6
2022-10-18T02:08:46.070Z,30.2
2022-10-18T02:10:49.535Z,30.7
2022-10-18T02:12:52.989Z,29.1
2022-10-18T02:14:56.463Z,32
2022-10-18T02:16:59.933Z,29.2
2022-10-18T02:19:03.442Z,26.7
2022-10-18T02:21:06.889Z,28.7
2022-10-18T02:23:13.475Z,31.4
2022-10-18T02:25:16.918Z,29.3
2022-10-18T02:27:20.384Z,29.5
2022-10-18T02:30:27.139Z,29.4
2022-10-18T02:32:30.784Z,30.1
2022-10-18T02:34:34.095Z,27.4
2022-10-18T02:36:40.715Z,30.2
2022-10-18T02:38:44.183Z,30.6
2022-10-18T02:40:47.628Z,32
2022-10-18T02:42:51.112Z,30.5
2022-10-18T02:44:54.571Z,31.7
2022-10-18T02:46:58.059Z,30.1
2022-10-18T02:49:01.555Z,32.9
2022-10-18T02:53:11.549Z,35
2022-10-18T02:55:15.028Z,32
2022-10-18T02:57:18.480Z,31.8
2022-10-18T02:59:21.965Z,34.3
2022-10-18T03:01:25.563Z,28.4
2022-10-18T03:03:28.906Z,28.1
2022-10-18T03:05:35.490Z,33.2
2022-10-18T03:07:38.971Z,30.9
2022-10-18T03:09:42.433Z,34.3
2022-10-18T03:11:45.914Z,30.4
2022-10-18T03:13:49.426Z,34.3
2022-10-18T03:15:52.888Z,31.1
2022-10-18T03:17:56.378Z,34
2022-10-18T03:20:02.961Z,30.5
2022-10-18T03:22:06.415Z,29.6
2022-10-18T03:24:09.882Z,28.8
2022-10-18T03:26:32.029Z,31.5
2022-10-18T03:28:35.565Z,30
2022-10-18T03:30:38.985Z,30.3
2022-10-18T03:32:45.543Z,33.9
2022-10-18T03:34:49.001Z,30.2
2022-10-18T03:36:52.520Z,30
2022-10-18T03:38:55.948Z,32.7
2022-10-18T03:40:59.476Z,28.6
2022-10-18T03:43:02.971Z,29.2
2022-10-18T03:45:06.473Z,28.9
2022-10-18T03:47:13.012Z,28.3
2022-10-18T03:49:16.518Z,31.2
2022-10-18T03:51:20.015Z,29.5
2022-10-18T03:53:23.495Z,29.3
2022-10-18T03:55:27.004Z,27.2
2022-10-18T03:57:30.483Z,29.5
2022-10-18T03:59:33.981Z,27.4
2022-10-18T04:01:40.660Z,31.7
2022-10-18T04:03:44.065Z,33
2022-10-18T04:05:47.528Z,32.4
2022-10-18T04:07:51.037Z,34.6
2022-10-18T04:09:54.521Z,29.3
2022-10-18T04:11:57.992Z,28.7
2022-10-18T04:14:01.518Z,31.1
2022-10-18T04:16:08.049Z,28.5
2022-10-18T04:18:11.539Z,26
2022-10-18T04:20:15.054Z,26.1
2022-10-18T04:21:18.356Z,27.9
2022-10-18T04:23:21.821Z,26
2022-10-18T04:25:25.337Z,26.7
2022-10-18T04:27:29.115Z,26.6
2022-10-18T04:29:35.393Z,26.9
2022-10-18T04:31:38.879Z,25.6
2022-10-18T04:33:42.380Z,23.4
2022-10-18T04:35:45.888Z,23.4
2022-10-18T04:37:49.384Z,26.9
2022-10-18T04:39:53.800Z,23.9
2022-10-18T04:41:56.388Z,25.6
2022-10-18T04:44:02.956Z,25.8
2022-10-18T04:46:06.412Z,27.5
2022-10-18T04:48:09.919Z,24.5
2022-10-18T04:50:13.419Z,28.8
2022-10-18T04:52:16.929Z,23.7
2022-10-18T04:54:21.891Z,26.6
2022-10-18T04:56:23.927Z,23.6
2022-10-18T04:58:30.688Z,25.8
2022-10-18T05:00:39.144Z,24.1
2022-10-18T05:02:37.541Z,26
2022-10-18T05:04:41.072Z,24.4
2022-10-18T05:06:44.579Z,23.6
2022-10-18T05:08:48.072Z,21.9
2022-10-18T05:10:51.604Z,25.6
2022-10-18T05:12:58.198Z,36.3
2022-10-18T05:15:01.713Z,36.4
2022-10-18T05:18:08.556Z,38.5
2022-10-18T05:20:12.044Z,33.1
2022-10-18T05:22:15.540Z,33.9
2022-10-18T05:24:20.269Z,39.2
2022-10-18T05:26:25.676Z,34.5
2022-10-18T05:28:39.508Z,32.8
2022-10-18T05:30:32.706Z,31.5
2022-10-18T05:32:36.250Z,28.5
2022-10-18T05:34:39.777Z,34.5
2022-10-18T05:36:43.263Z,29.3
2022-10-18T05:38:46.822Z,29.9
2022-10-18T05:40:53.399Z,29.5
2022-10-18T05:42:56.923Z,26.1
2022-10-18T05:47:03.945Z,33.9
2022-10-18T05:53:35.361Z,27.4
2022-10-18T05:55:21.103Z,34.2
2022-10-18T05:57:24.630Z,31.8
2022-10-18T05:59:28.145Z,23.5
2022-10-18T06:01:31.678Z,22.4
2022-10-18T06:03:35.175Z,23.3
2022-10-18T06:07:42.230Z,25.8
2022-10-18T06:09:48.891Z,25.3
2022-10-18T06:11:52.373Z,23.5
2022-10-18T06:13:55.857Z,22.1
2022-10-18T06:14:59.141Z,23.9
2022-10-18T06:17:02.685Z,20.7
2022-10-18T06:19:06.197Z,18.8
2022-10-18T06:21:09.733Z,19.2
2022-10-18T06:23:16.334Z,19
2022-10-18T06:25:19.904Z,21.7
2022-10-18T06:27:23.398Z,20.6
2022-10-18T06:29:28.496Z,18
2022-10-18T06:31:31.963Z,24.3
2022-10-18T06:33:35.481Z,19.9
2022-10-18T06:35:39.008Z,17
2022-10-18T06:37:45.675Z,28.2
2022-10-18T06:39:49.181Z,19.3
2022-10-18T06:41:52.734Z,17.6
2022-10-18T06:43:56.258Z,18
2022-10-18T06:45:59.927Z,17.7
2022-10-18T06:48:03.317Z,17.6
2022-10-18T06:50:06.860Z,16.9
2022-10-18T06:52:13.486Z,18.7
2022-10-18T06:54:18.366Z,15.8
2022-10-18T06:56:20.579Z,17.2
2022-10-18T06:58:24.153Z,19.1
2022-10-18T07:00:27.656Z,18.3
2022-10-18T07:02:36.210Z,15.9
2022-10-18T07:04:34.772Z,17.6
2022-10-18T07:07:12.803Z,19.6
2022-10-18T07:08:44.968Z,18.4
2022-10-18T07:10:48.567Z,20.2
2022-10-18T07:19:25.842Z,23.2
2022-10-18T07:21:29.351Z,23.6
2022-10-18T07:23:32.926Z,24
2022-10-18T07:25:36.473Z,22.6
2022-10-18T07:33:53.702Z,25.2
2022-10-18T07:35:57.227Z,23.2
2022-10-18T07:38:00.819Z,23.2
2022-10-18T07:40:04.294Z,20.9
2022-10-18T07:44:11.338Z,17
2022-10-18T07:46:14.900Z,14.6
2022-10-18T07:48:21.480Z,13.4
2022-10-18T07:50:24.976Z,11.5
2022-10-18T07:52:28.491Z,10.3
2022-10-18T07:54:31.986Z,9.3
2022-10-18T07:56:35.489Z,9.1
2022-10-18T07:58:38.989Z,7.6
2022-10-18T08:00:42.470Z,8.6
2022-10-18T08:02:49.072Z,7.3
2022-10-18T08:04:52.580Z,5.9
2022-10-18T08:06:56.003Z,4.8
2022-10-18T08:08:01.009Z,4.9
2022-10-18T08:12:06.115Z,3.7
2022-10-18T08:14:09.553Z,4.3
2022-10-18T08:16:16.026Z,3.5
2022-10-18T08:18:20.479Z,3.8
2022-10-18T08:20:30.750Z,3.4
2022-10-18T08:22:36.700Z,3.1
2022-10-18T08:24:29.856Z,3.8
2022-10-18T08:26:33.312Z,3.2
2022-10-18T08:28:36.964Z,3.4
2022-10-18T08:30:43.261Z,3.2
2022-10-18T08:32:46.716Z,2.5
2022-10-18T08:36:53.571Z,2.6
2022-10-18T08:38:57.024Z,2.9
2022-10-18T08:41:00.465Z,2.6
2022-10-18T08:45:13.053Z,2
2022-10-18T08:51:20.694Z,2.6
2022-10-18T08:53:24.050Z,1.7
2022-10-18T08:55:27.506Z,1.3
2022-10-18T08:57:31.213Z,1.7
2022-10-18T08:59:37.510Z,1.8
2022-10-18T09:01:41.007Z,1.3
2022-10-18T09:03:44.413Z,1.4
2022-10-18T09:04:47.597Z,1.3
2022-10-18T09:06:51.004Z,0.9
2022-10-18T09:08:54.329Z,2.2
2022-10-18T09:13:04.209Z,1.1
2022-10-18T09:15:07.612Z,1
2022-10-18T09:17:15.780Z,1.5
2022-10-18T09:19:14.200Z,1.6
2022-10-18T09:21:17.477Z,1.5
2022-10-18T09:23:20.752Z,0.9
2022-10-18T09:25:24.063Z,0.9
2022-10-18T09:27:30.290Z,1
2022-10-18T09:29:33.551Z,1
2022-10-18T09:31:36.787Z,2
2022-10-18T09:33:40.019Z,1.4
2022-10-18T09:35:43.241Z,1.2
2022-10-18T09:37:46.447Z,0.8
2022-10-18T09:39:49.645Z,0.6
2022-10-18T09:41:55.849Z,0.8
2022-10-18T09:43:59.037Z,0.9
2022-10-18T09:48:05.376Z,0.9
2022-10-18T09:50:08.558Z,0.4
2022-10-18T09:54:14.839Z,0.6
2022-10-18T09:56:21.013Z,0.9
2022-10-18T09:58:24.121Z,0.9
2022-10-18T10:00:27.244Z,1
2022-10-18T10:01:30.337Z,1.1
2022-10-18T10:03:33.448Z,1.1
2022-10-18T10:05:36.557Z,0.7
2022-10-18T10:07:40.012Z,1
2022-10-18T10:09:45.807Z,1
2022-10-18T10:11:48.918Z,0.9
2022-10-18T10:15:55.098Z,1.4
2022-10-18T10:17:58.171Z,0.7
2022-10-18T10:20:01.312Z,1
2022-10-18T10:22:04.371Z,0.7
2022-10-18T10:24:10.493Z,0.9
2022-10-18T10:26:13.602Z,0.7
2022-10-18T10:28:16.643Z,0.6
2022-10-18T10:30:19.718Z,0.6
2022-10-18T10:32:22.824Z,0.9
2022-10-18T10:34:25.870Z,1.5
2022-10-18T10:36:28.945Z,0.6
2022-10-18T10:38:35.040Z,0.7
2022-10-18T10:40:38.095Z,1
2022-10-18T10:42:41.151Z,0.8
2022-10-18T10:44:44.189Z,0.4
2022-10-18T10:46:47.259Z,0.4
2022-10-18T10:48:50.320Z,0.8
2022-10-18T10:50:55.125Z,0.9
2022-10-18T10:52:59.406Z,0.7
2022-10-18T10:55:22.987Z,1.1
2022-10-18T10:57:05.736Z,1.3
2022-10-18T10:59:29.311Z,0.4
2022-10-18T11:01:32.236Z,0.8
2022-10-18T11:03:35.327Z,0.6
2022-10-18T11:05:41.345Z,0.6
2022-10-18T11:07:44.359Z,0.8
2022-10-18T11:09:47.385Z,1.1
2022-10-18T11:11:50.379Z,0.5
2022-10-18T11:14:01.913Z,1.2
2022-10-18T11:15:56.398Z,0.6
2022-10-18T11:17:59.439Z,0.6
2022-10-18T11:22:08.441Z,0.5
2022-10-18T11:24:11.436Z,0.8
2022-10-18T11:28:17.437Z,0.6
2022-10-18T11:30:20.478Z,0.6
2022-10-18T11:32:23.493Z,1
2022-10-18T11:34:29.580Z,0.8
2022-10-18T11:36:35.128Z,0.6
2022-10-18T11:38:35.851Z,0.4
2022-10-18T11:40:38.765Z,0.7
2022-10-18T11:42:41.863Z,0.7
2022-10-18T11:44:44.995Z,0.5
2022-10-18T11:46:48.120Z,0.7
2022-10-18T11:48:54.315Z,0.8
2022-10-18T11:50:57.457Z,0.8
2022-10-18T11:53:00.625Z,0.9
2022-10-18T11:54:03.687Z,0.5
2022-10-18T11:56:06.872Z,1.1
2022-10-18T11:58:10.020Z,0.4
2022-10-18T12:00:13.248Z,1
2022-10-18T12:02:19.540Z,0.8
2022-10-18T12:04:22.642Z,0.5
2022-10-18T12:06:25.844Z,0.9
2022-10-18T12:10:45.815Z,0.9
2022-10-18T12:12:35.607Z,0.5
2022-10-18T12:14:38.813Z,0.6
2022-10-18T12:16:51.542Z,0.9
2022-10-18T12:18:48.448Z,1.8
2022-10-18T12:22:54.975Z,0.7
2022-10-18T12:24:59.778Z,0.7
2022-10-18T12:27:03.082Z,1
2022-10-18T12:29:06.557Z,0.8
2022-10-18T12:31:12.872Z,0.9
2022-10-18T12:35:19.501Z,0.8
2022-10-18T12:37:22.866Z,0.5
2022-10-18T12:39:37.506Z,0.9
2022-10-18T12:41:29.611Z,1
2022-10-18T12:43:32.934Z,1
2022-10-18T12:45:39.430Z,1.7
2022-10-18T12:47:42.810Z,0.8
2022-10-18T12:49:46.173Z,0.9
2022-10-18T12:50:49.409Z,0.8
2022-10-18T12:52:52.785Z,0.9
2022-10-18T12:54:56.050Z,0.8
2022-10-18T12:56:59.325Z,0.9
2022-10-18T12:59:05.704Z,0.6
2022-10-18T13:01:09.039Z,0.7
2022-10-18T13:03:12.367Z,0.8
2022-10-18T13:05:26.983Z,0.9
2022-10-18T13:09:22.556Z,1.1
2022-10-18T13:13:39.688Z,1.3
2022-10-18T13:17:39.244Z,1
2022-10-18T13:19:42.604Z,0.9
2022-10-18T13:21:46.019Z,0.9
2022-10-18T13:23:49.310Z,0.5
2022-10-18T13:25:52.700Z,0.8
2022-10-18T13:27:59.147Z,0.8
2022-10-18T13:30:03.331Z,0.6
2022-10-18T13:32:06.017Z,0.7
2022-10-18T13:34:09.359Z,0.5
2022-10-18T13:36:12.715Z,1
2022-10-18T13:38:16.191Z,1.1
2022-10-18T13:40:19.539Z,0.7
2022-10-18T13:42:26.077Z,1.2
2022-10-18T13:44:29.433Z,0.4
2022-10-18T13:46:32.857Z,1
2022-10-18T13:47:36.124Z,1.4
2022-10-18T13:49:39.577Z,0.8
2022-10-18T13:55:55.821Z,0.5
2022-10-18T13:57:56.354Z,0.7
2022-10-18T13:59:59.667Z,1
2022-10-18T14:02:03.115Z,1.1
2022-10-18T14:04:06.398Z,1.2
2022-10-18T14:06:09.809Z,1.2
2022-10-18T14:08:13.260Z,0.8
2022-10-18T14:10:19.774Z,1
2022-10-18T14:12:23.176Z,2.1
2022-10-18T14:14:26.611Z,1
2022-10-18T14:16:29.967Z,1
2022-10-18T14:18:33.387Z,1.6
2022-10-18T14:20:48.925Z,0.9
2022-10-18T14:22:40.230Z,0.8
2022-10-18T14:28:59.967Z,1
2022-10-18T14:30:56.971Z,0.9
2022-10-18T14:33:00.550Z,1.2
2022-10-18T14:35:31.515Z,1.1
2022-10-18T14:39:13.712Z,1.1
2022-10-18T14:41:17.126Z,1.5
2022-10-18T14:43:20.553Z,1.1
2022-10-18T14:45:38.960Z,0.8
2022-10-18T14:47:42.389Z,0.7
2022-10-18T14:49:45.796Z,1.3
2022-10-18T14:51:52.307Z,0.8
2022-10-18T14:53:55.810Z,1.1
2022-10-18T14:55:59.158Z,1
2022-10-18T14:58:02.594Z,0.9
2022-10-18T15:00:06.034Z,0.8
2022-10-18T15:02:09.457Z,1.8
2022-10-18T15:06:19.442Z,1.3
2022-10-18T15:08:22.871Z,1.3
2022-10-18T15:10:26.330Z,1
2022-10-18T15:12:36.850Z,1.2
2022-10-18T15:14:33.214Z,0.7
2022-10-18T15:16:36.629Z,0.6
2022-10-18T15:18:40.098Z,1
2022-10-18T15:20:46.675Z,1.2
2022-10-18T15:22:50.130Z,0.5
2022-10-18T15:24:53.519Z,0.8
2022-10-18T15:26:57.008Z,0.7
2022-10-18T15:29:02.981Z,1.3
2022-10-18T15:31:03.907Z,0.8
2022-10-18T15:33:07.358Z,1.1
2022-10-18T15:35:13.917Z,0.7
2022-10-18T15:37:17.384Z,0.8
2022-10-18T15:39:20.816Z,1.3
2022-10-18T15:40:24.111Z,1.2
2022-10-18T15:42:27.596Z,3.8
2022-10-18T15:44:31.061Z,1.2
2022-10-18T15:48:41.108Z,2
2022-10-18T15:50:44.559Z,1
2022-10-18T15:52:48.042Z,1.9
2022-10-18T15:54:51.506Z,1.5
2022-10-18T15:56:54.984Z,1.8
2022-10-18T15:58:58.416Z,1.5
2022-10-18T16:01:02.050Z,1.2
2022-10-18T16:03:08.525Z,1.2
2022-10-18T16:05:11.962Z,1.8
2022-10-18T16:07:15.480Z,1.4
2022-10-18T16:09:18.899Z,1.6
2022-10-18T16:11:22.396Z,1.1
2022-10-18T16:13:25.857Z,1.5
2022-10-18T16:15:29.355Z,1.3
2022-10-18T16:17:36.030Z,1.2
2022-10-18T16:19:39.598Z,1
2022-10-18T16:21:42.943Z,0.8
2022-10-18T16:25:49.893Z,1.1
2022-10-18T16:27:53.405Z,1.3
2022-10-18T16:29:56.913Z,1.3
2022-10-18T16:32:03.499Z,1.9
2022-10-18T16:36:10.498Z,1.6
2022-10-18T16:37:13.771Z,1.7
2022-10-18T16:39:17.311Z,2.2
2022-10-18T16:41:20.796Z,1.4
2022-10-18T16:43:24.296Z,2.6
2022-10-18T16:45:31.038Z,2.1
2022-10-18T16:47:34.413Z,3.1
2022-10-18T16:49:37.965Z,5.1
2022-10-18T16:51:41.469Z,3.2
2022-10-18T16:53:44.930Z,3
2022-10-18T16:55:48.445Z,2.9
2022-10-18T16:57:51.954Z,1.5
2022-10-18T16:59:58.535Z,1.7
2022-10-18T17:02:02.134Z,2
2022-10-18T17:04:05.569Z,2.1
2022-10-18T17:06:09.340Z,1.6
2022-10-18T17:08:15.354Z,3
2022-10-18T17:10:16.152Z,2.4
2022-10-18T17:12:19.664Z,2.6
2022-10-18T17:14:26.284Z,4.8
2022-10-18T17:18:33.290Z,2.1
2022-10-18T17:20:36.793Z,2.3
2022-10-18T17:22:40.310Z,1.8
2022-10-18T17:24:43.845Z,1.7
2022-10-18T17:26:47.379Z,1.4
2022-10-18T17:28:53.973Z,2.1
2022-10-18T17:30:57.477Z,1.9
2022-10-18T17:33:00.986Z,1.7
2022-10-18T17:40:14.866Z,3.5
2022-10-18T17:42:21.432Z,2.5
2022-10-18T17:44:24.954Z,1.6
2022-10-18T17:46:28.499Z,1.7
2022-10-18T17:48:32.054Z,1.8
2022-10-18T17:50:35.576Z,1.9
2022-10-18T17:52:39.104Z,1.5
2022-10-18T17:54:42.597Z,2.1
2022-10-18T17:56:52.318Z,2.6
2022-10-18T17:58:52.784Z,1.6
2022-10-18T18:00:56.350Z,2
2022-10-18T18:02:59.916Z,2
2022-10-18T18:05:03.535Z,2.1
2022-10-18T18:07:06.937Z,3.2
2022-10-18T18:09:10.473Z,2.2
2022-10-18T18:11:17.108Z,2.2
2022-10-18T18:13:20.641Z,2.3
2022-10-18T18:15:24.178Z,2.4
2022-10-18T18:17:34.151Z,2.1
2022-10-18T18:19:31.298Z,1.9
2022-10-18T18:21:36.426Z,2.1
2022-10-18T18:23:39.916Z,1.8
2022-10-18T18:27:50.223Z,1.7
2022-10-18T18:29:53.642Z,1.9
2022-10-18T18:32:17.662Z,2.4
2022-10-18T18:34:21.236Z,2
2022-10-18T18:36:24.771Z,2.1
2022-10-18T18:38:31.404Z,2.2
2022-10-18T18:40:34.947Z,1.9
2022-10-18T18:42:38.488Z,2.1
2022-10-18T18:44:42.040Z,1.5
2022-10-18T18:46:45.625Z,2.1
2022-10-18T18:48:49.192Z,2.1
2022-10-18T18:50:52.746Z,1.7
2022-10-18T18:52:59.383Z,1.8
2022-10-18T18:55:02.961Z,1.7
2022-10-18T18:57:06.524Z,1.9
2022-10-18T18:59:10.076Z,2.4
2022-10-18T19:01:13.708Z,3.1
2022-10-18T19:05:20.831Z,2.9
2022-10-18T19:07:27.438Z,2.6
2022-10-18T19:09:30.970Z,2.6
2022-10-18T19:11:34.563Z,2.4
2022-10-18T19:15:41.716Z,2.5
2022-10-18T19:17:45.297Z,5.2
2022-10-18T19:19:48.851Z,3.6
2022-10-18T19:21:55.544Z,4.3
2022-10-18T19:23:59.140Z,3.9
2022-10-18T19:26:02.698Z,2.6
2022-10-18T19:27:06.016Z,3
2022-10-18T19:29:09.712Z,2.9
2022-10-18T19:31:13.437Z,2.8
2022-10-18T19:33:16.789Z,2.7
2022-10-18T19:35:23.434Z,3.2
2022-10-18T19:39:30.640Z,3.2
2022-10-18T19:45:41.411Z,4.2
2022-10-18T19:47:45.010Z,4.7
2022-10-18T19:49:51.691Z,5.3
2022-10-18T19:51:55.294Z,4.2
2022-10-18T19:53:58.866Z,3.9
2022-10-18T19:56:02.476Z,4.8
2022-10-18T20:00:10.865Z,4.2
2022-10-18T20:02:13.257Z,4.3
2022-10-18T20:04:19.934Z,5
2022-10-18T20:08:27.166Z,4.2
2022-10-18T20:12:34.556Z,3.9
2022-10-18T20:20:51.840Z,4.7
2022-10-18T20:22:55.435Z,3.8
2022-10-18T20:23:58.805Z,4.2
2022-10-18T20:26:02.373Z,3.8
2022-10-18T20:28:05.964Z,4.3
2022-10-18T20:30:11.347Z,4.6
2022-10-18T20:32:16.248Z,4.3
2022-10-18T20:34:19.839Z,4.4
2022-10-18T20:36:23.449Z,4.6
2022-10-18T20:38:27.050Z,4.7
2022-10-18T20:42:34.267Z,5.6
2022-10-18T20:44:37.881Z,5
2022-10-18T20:46:44.596Z,4.7
2022-10-18T20:48:48.165Z,5
2022-10-18T20:50:51.801Z,4.7
2022-10-18T20:52:55.405Z,5.8
2022-10-18T20:54:58.991Z,4.9
2022-10-18T20:57:02.603Z,5.7
2022-10-18T20:59:06.238Z,6
2022-10-18T21:01:12.969Z,5.8
2022-10-18T21:03:16.468Z,5.7
2022-10-18T21:05:20.118Z,4.9
2022-10-18T21:07:23.721Z,5.8
2022-10-18T21:09:27.338Z,5.4
2022-10-18T21:11:30.981Z,6.2
2022-10-18T21:13:34.598Z,6.5
2022-10-18T21:15:41.267Z,6.8
2022-10-18T21:17:44.871Z,5.9
2022-10-18T21:19:48.466Z,6
2022-10-18T21:20:51.810Z,6.2
2022-10-18T21:22:55.424Z,6
2022-10-18T21:24:59.071Z,6.3
2022-10-18T21:29:09.452Z,5.1
2022-10-18T21:33:16.603Z,6.1
2022-10-18T21:35:20.205Z,4.6
2022-10-18T21:37:23.809Z,5.4
2022-10-18T21:39:27.427Z,5
2022-10-18T21:41:31.072Z,5.4
2022-10-18T21:43:37.745Z,5.5
2022-10-18T21:45:41.340Z,6
2022-10-18T21:47:44.961Z,4.9
2022-10-18T21:49:48.573Z,5.7
2022-10-18T21:51:52.229Z,5.6
2022-10-18T21:53:55.830Z,5.3
2022-10-18T21:55:59.449Z,4.8
2022-10-18T22:04:17.034Z,5.1
2022-10-18T22:06:20.696Z,5
2022-10-18T22:08:24.236Z,5.5
2022-10-18T22:10:27.869Z,4.8
2022-10-18T22:12:34.686Z,4.7
2022-10-18T22:14:38.184Z,5.2
2022-10-18T22:16:41.799Z,5.4
2022-10-18T22:19:04.297Z,5
2022-10-18T22:21:07.910Z,5
2022-10-18T22:23:11.534Z,4.7
2022-10-18T22:25:18.238Z,4.7
2022-10-18T22:27:21.865Z,5.1
2022-10-18T22:29:25.502Z,4.8
2022-10-18T22:31:29.104Z,4.6
2022-10-18T22:33:32.813Z,5.3
2022-10-18T22:35:36.394Z,5.5
2022-10-18T22:37:40.024Z,5.6
2022-10-18T22:39:46.720Z,6.6
2022-10-18T22:41:50.326Z,6
2022-10-18T22:43:54.881Z,5.7
2022-10-18T22:45:57.574Z,6.7
2022-10-18T22:48:01.224Z,5.6
2022-10-18T22:50:04.945Z,5.2
2022-10-18T22:52:08.486Z,5.8
2022-10-18T22:54:15.216Z,5.9
2022-10-18T22:56:18.789Z,6.3
2022-10-18T23:00:26.144Z,5.7
2022-10-18T23:02:29.696Z,6.6
2022-10-18T23:06:37.915Z,5.9
2022-10-18T23:08:48.018Z,6.3
2022-10-18T23:10:47.259Z,6.1
2022-10-18T23:12:50.890Z,6.1
2022-10-18T23:13:54.236Z,6.5
2022-10-18T23:16:01.056Z,6.2
2022-10-18T23:18:01.508Z,5.9
2022-10-18T23:20:05.196Z,6.5
2022-10-18T23:22:11.847Z,6
2022-10-18T23:24:15.453Z,6.1
2022-10-18T23:26:19.099Z,6.1
2022-10-18T23:28:22.750Z,6.6
2022-10-18T23:30:26.395Z,6
2022-10-18T23:32:30.172Z,5.6
2022-10-18T23:34:33.640Z,5.4
2022-10-18T23:38:43.978Z,6
2022-10-18T23:40:47.572Z,6.7
2022-10-18T23:44:54.937Z,8.1
2022-10-18T23:46:58.500Z,6.9
2022-10-18T23:49:02.144Z,7.2
2022-10-18T23:53:12.464Z,7.8
2022-10-18T23:57:19.732Z,7.3
